Parkside, Pennsylvania
Current Conditions -  °F | °C
As of 3:54 PM on Thursday 23 Oct 2014 (Local Time) from KPHL Reporting Station
Overcast Overcast  
Wind Chill: 57°   Ceiling: 5000
Heat Index: 57°   Visibility: 10mi
Dew Point: 44°   Wind: 23mph
Humidity: 62%   Direction: 320°NW
Pressure: 29.77"   Gusts: 29mph
Location:  39.8463°N, 75.374°W
Report Text: KPHL 231954Z 32020G25KT 10SM FEW025 OVC050 14/07 A2977 RMK AO2 PK WND 33028/1857 SLP081 T01390067 PNO $
Loading
Personal Weather Stations






























Interactive Weather Map
Tropical Storm Tracking
New forecast layout! Learn more

10-Day Weather Forecast

Advertisements
Track Severe Weather on mobile